createdAt,value
2017-05-09T00:00:01.487Z,4.35
2017-05-09T00:00:42.005Z,4.42
2017-05-09T00:01:22.647Z,4.42
2017-05-09T00:02:03.137Z,4.37
2017-05-09T00:02:43.587Z,4.38
2017-05-09T00:03:24.089Z,4.37
2017-05-09T00:04:04.567Z,4.24
2017-05-09T00:04:45.065Z,4.34
2017-05-09T00:05:25.576Z,4.31
2017-05-09T00:06:06.060Z,4.28
2017-05-09T00:06:46.570Z,4.24
2017-05-09T00:07:27.098Z,4.23
2017-05-09T00:08:07.585Z,4.2
2017-05-09T00:08:48.096Z,4.23
2017-05-09T00:09:28.575Z,4.2
2017-05-09T00:10:09.077Z,4.19
2017-05-09T00:10:49.558Z,4.14
2017-05-09T00:11:30.026Z,4.26
2017-05-09T00:12:10.486Z,4.14
2017-05-09T00:12:50.977Z,4.2
2017-05-09T00:13:31.472Z,4.2
2017-05-09T00:14:11.968Z,4.19
2017-05-09T00:14:52.436Z,4.16
2017-05-09T00:15:32.913Z,4.19
2017-05-09T00:16:13.446Z,4.1
2017-05-09T00:16:53.955Z,4.17
2017-05-09T00:17:34.443Z,4.22
2017-05-09T00:18:14.962Z,4.13
2017-05-09T00:18:55.472Z,4.14
2017-05-09T00:19:36.014Z,4.17
2017-05-09T00:20:16.503Z,4.16
2017-05-09T00:20:56.970Z,4.12
2017-05-09T00:21:37.473Z,4.14
2017-05-09T00:22:17.987Z,4.2
2017-05-09T00:22:58.420Z,4.2
2017-05-09T00:23:38.926Z,4.23
2017-05-09T00:24:19.399Z,4.17
2017-05-09T00:24:59.875Z,4.17
2017-05-09T00:25:40.358Z,4.16
2017-05-09T00:26:20.813Z,4.19
2017-05-09T00:27:01.313Z,4.12
2017-05-09T00:27:41.845Z,4.16
2017-05-09T00:28:22.332Z,4.1
2017-05-09T00:29:02.827Z,4.14
2017-05-09T00:29:43.301Z,4.05
2017-05-09T00:30:23.779Z,4.1
2017-05-09T00:31:04.265Z,4.05
2017-05-09T00:31:44.757Z,3.98
2017-05-09T00:32:25.221Z,4.02
2017-05-09T00:33:05.706Z,3.98
2017-05-09T00:33:46.200Z,3.95
2017-05-09T00:34:26.681Z,3.94
2017-05-09T00:35:07.694Z,3.92
2017-05-09T00:35:48.172Z,3.88
2017-05-09T00:36:28.684Z,3.84
2017-05-09T00:37:09.176Z,3.81
2017-05-09T00:37:49.689Z,3.83
2017-05-09T00:38:30.175Z,3.83
2017-05-09T00:39:10.657Z,3.91
2017-05-09T00:39:51.220Z,3.76
2017-05-09T00:40:31.743Z,3.83
2017-05-09T00:41:12.248Z,3.81
2017-05-09T00:41:52.690Z,3.87
2017-05-09T00:42:33.167Z,3.77
2017-05-09T00:43:13.635Z,3.77
2017-05-09T00:43:54.157Z,3.8
2017-05-09T00:44:34.606Z,3.87
2017-05-09T00:45:15.092Z,3.8
2017-05-09T00:45:55.643Z,3.77
2017-05-09T00:46:36.081Z,3.78
2017-05-09T00:47:16.590Z,3.8
2017-05-09T00:47:57.072Z,3.77
2017-05-09T00:48:37.534Z,3.76
2017-05-09T00:49:17.988Z,3.8
2017-05-09T00:49:58.539Z,3.8
2017-05-09T00:50:38.980Z,3.84
2017-05-09T00:51:19.498Z,3.83
2017-05-09T00:51:59.953Z,3.77
2017-05-09T00:52:40.396Z,3.8
2017-05-09T00:53:20.891Z,3.76
2017-05-09T00:54:01.393Z,3.76
2017-05-09T00:54:41.848Z,3.69
2017-05-09T00:55:22.309Z,3.74
2017-05-09T00:56:02.837Z,3.65
2017-05-09T00:56:43.306Z,3.7
2017-05-09T00:57:23.769Z,3.76
2017-05-09T00:58:04.269Z,3.74
2017-05-09T00:58:44.772Z,3.74
2017-05-09T00:59:25.232Z,3.77
2017-05-09T01:00:05.718Z,3.7
2017-05-09T01:00:46.217Z,3.8
2017-05-09T01:01:26.694Z,3.73
2017-05-09T01:02:07.141Z,3.65
2017-05-09T01:02:47.667Z,3.65
2017-05-09T01:03:28.149Z,3.65
2017-05-09T01:04:08.624Z,3.7
2017-05-09T01:04:49.104Z,3.62
2017-05-09T01:05:29.591Z,3.6
2017-05-09T01:06:10.066Z,3.53
2017-05-09T01:06:50.562Z,3.63
2017-05-09T01:07:31.063Z,3.6
2017-05-09T01:08:11.557Z,3.58
2017-05-09T01:08:52.054Z,3.58
2017-05-09T01:09:32.565Z,3.58
2017-05-09T01:10:12.982Z,3.58
2017-05-09T01:10:53.477Z,3.6
2017-05-09T01:11:34.047Z,3.66
2017-05-09T01:12:14.527Z,3.65
2017-05-09T01:12:55.006Z,3.66
2017-05-09T01:13:35.517Z,3.74
2017-05-09T01:14:16.026Z,3.66
2017-05-09T01:14:56.502Z,3.62
2017-05-09T01:15:36.965Z,3.78
2017-05-09T01:16:17.472Z,3.7
2017-05-09T01:16:57.964Z,3.69
2017-05-09T01:17:38.466Z,3.8
2017-05-09T01:18:18.922Z,3.76
2017-05-09T01:18:59.420Z,3.83
2017-05-09T01:19:39.918Z,3.76
2017-05-09T01:20:20.403Z,3.78
2017-05-09T01:21:00.884Z,3.8
2017-05-09T01:21:41.379Z,3.77
2017-05-09T01:22:21.888Z,3.83
2017-05-09T01:23:02.407Z,3.74
2017-05-09T01:23:42.846Z,3.86
2017-05-09T01:24:23.335Z,3.8
2017-05-09T01:25:03.782Z,3.88
2017-05-09T01:25:44.305Z,3.87
2017-05-09T01:26:24.845Z,3.8
2017-05-09T01:27:05.362Z,3.83
2017-05-09T01:27:45.831Z,3.8
2017-05-09T01:28:26.334Z,3.77
2017-05-09T01:29:06.813Z,3.76
2017-05-09T01:29:47.297Z,3.78
2017-05-09T01:30:27.758Z,3.78
2017-05-09T01:31:08.259Z,3.74
2017-05-09T01:31:48.751Z,3.81
2017-05-09T01:32:29.265Z,3.78
2017-05-09T01:33:09.748Z,3.76
2017-05-09T01:33:50.221Z,3.83
2017-05-09T01:34:30.759Z,3.84
2017-05-09T01:35:11.211Z,3.86
2017-05-09T01:35:51.742Z,3.8
2017-05-09T01:36:32.211Z,3.8
2017-05-09T01:37:12.825Z,3.83
2017-05-09T01:37:53.269Z,3.74
2017-05-09T01:38:33.774Z,3.8
2017-05-09T01:39:14.255Z,3.83
2017-05-09T01:39:54.694Z,3.81
2017-05-09T01:40:35.190Z,3.77
2017-05-09T01:41:15.733Z,3.8
2017-05-09T01:41:56.233Z,3.74
2017-05-09T01:42:36.722Z,3.7
2017-05-09T01:43:17.235Z,3.7
2017-05-09T01:43:57.726Z,3.7
2017-05-09T01:44:38.172Z,3.76
2017-05-09T01:45:18.695Z,3.66
2017-05-09T01:45:59.219Z,3.73
2017-05-09T01:46:39.687Z,3.66
2017-05-09T01:47:20.217Z,3.63
2017-05-09T01:48:00.665Z,3.63
2017-05-09T01:48:41.155Z,3.66
2017-05-09T01:49:21.628Z,3.74
2017-05-09T01:50:02.128Z,3.63
2017-05-09T01:50:42.613Z,3.78
2017-05-09T01:51:23.104Z,3.65
2017-05-09T01:52:03.617Z,3.66
2017-05-09T01:52:44.138Z,3.65
2017-05-09T01:53:24.642Z,3.65
2017-05-09T01:54:05.101Z,3.7
2017-05-09T01:54:45.555Z,3.68
2017-05-09T01:55:26.081Z,3.59
2017-05-09T01:56:06.548Z,3.56
2017-05-09T01:56:47.045Z,3.66
2017-05-09T01:57:27.566Z,3.59
2017-05-09T01:58:08.041Z,3.65
2017-05-09T01:58:48.502Z,3.6
2017-05-09T01:59:28.985Z,3.53
2017-05-09T02:00:09.537Z,3.51
2017-05-09T02:00:49.992Z,3.55
2017-05-09T02:01:30.633Z,3.55
2017-05-09T02:02:11.193Z,3.6
2017-05-09T02:02:51.625Z,3.53
2017-05-09T02:03:32.178Z,3.62
2017-05-09T02:04:12.708Z,3.53
2017-05-09T02:04:53.170Z,3.55
2017-05-09T02:05:33.670Z,3.5
2017-05-09T02:06:14.165Z,3.47
2017-05-09T02:06:54.645Z,3.45
2017-05-09T02:07:35.224Z,3.47
2017-05-09T02:08:15.694Z,3.51
2017-05-09T02:08:56.221Z,3.51
2017-05-09T02:09:36.772Z,3.42
2017-05-09T02:10:17.253Z,3.4
2017-05-09T02:10:57.700Z,3.32
2017-05-09T02:11:38.143Z,3.41
2017-05-09T02:12:18.625Z,3.5
2017-05-09T02:12:59.187Z,3.45
2017-05-09T02:13:39.690Z,3.37
2017-05-09T02:14:20.193Z,3.29
2017-05-09T02:15:00.726Z,3.34
2017-05-09T02:15:41.220Z,3.36
2017-05-09T02:16:21.764Z,3.37
2017-05-09T02:17:02.324Z,3.41
2017-05-09T02:17:42.778Z,3.31
2017-05-09T02:18:23.337Z,3.26
2017-05-09T02:19:03.799Z,3.19
2017-05-09T02:19:44.307Z,3.31
2017-05-09T02:20:24.777Z,3.18
2017-05-09T02:21:05.248Z,3.18
2017-05-09T02:21:45.699Z,3.18
2017-05-09T02:22:26.334Z,3.21
2017-05-09T02:23:06.760Z,3.21
2017-05-09T02:23:47.331Z,3.29
2017-05-09T02:24:27.787Z,3.26
2017-05-09T02:25:08.262Z,3.32
2017-05-09T02:25:48.761Z,3.41
2017-05-09T02:26:29.232Z,3.31
2017-05-09T02:27:09.714Z,3.37
2017-05-09T02:27:50.194Z,3.34
2017-05-09T02:28:30.760Z,3.29
2017-05-09T02:29:11.321Z,3.36
2017-05-09T02:29:51.812Z,3.32
2017-05-09T02:30:32.353Z,3.31
2017-05-09T02:31:12.787Z,3.37
2017-05-09T02:31:53.274Z,3.37
2017-05-09T02:32:33.788Z,3.32
2017-05-09T02:33:14.256Z,3.4
2017-05-09T02:33:54.720Z,3.29
2017-05-09T02:34:35.240Z,3.28
2017-05-09T02:35:15.682Z,3.31
2017-05-09T02:35:56.202Z,3.25
2017-05-09T02:36:36.670Z,3.21
2017-05-09T02:37:17.147Z,3.28
2017-05-09T02:37:57.645Z,3.25
2017-05-09T02:38:38.164Z,3.22
2017-05-09T02:39:18.621Z,3.22
2017-05-09T02:39:59.092Z,3.19
2017-05-09T02:40:39.616Z,3.21
2017-05-09T02:41:20.095Z,3.21
2017-05-09T02:42:00.584Z,3.13
2017-05-09T02:42:41.058Z,3.19
2017-05-09T02:43:21.578Z,3.1
2017-05-09T02:44:02.033Z,3.04
2017-05-09T02:44:42.499Z,3.08
2017-05-09T02:45:22.993Z,3.11
2017-05-09T02:46:03.471Z,3.14
2017-05-09T02:46:43.960Z,3.1
2017-05-09T02:47:24.431Z,3.05
2017-05-09T02:48:04.925Z,3.04
2017-05-09T02:48:45.435Z,3.01
2017-05-09T02:49:25.894Z,3.04
2017-05-09T02:50:06.433Z,3.03
2017-05-09T02:50:46.967Z,3.04
2017-05-09T02:51:27.460Z,3.03
2017-05-09T02:52:07.983Z,2.98
2017-05-09T02:52:48.424Z,2.95
2017-05-09T02:53:28.958Z,3.03
2017-05-09T02:54:09.425Z,2.92
2017-05-09T02:54:49.894Z,2.98
2017-05-09T02:55:30.412Z,2.89
2017-05-09T02:56:10.919Z,3.01
2017-05-09T02:56:51.399Z,2.95
2017-05-09T02:57:31.877Z,2.95
2017-05-09T02:58:12.429Z,2.95
2017-05-09T02:58:52.855Z,2.92
2017-05-09T02:59:33.371Z,2.89
2017-05-09T03:00:13.803Z,2.92
2017-05-09T03:00:54.336Z,2.93
2017-05-09T03:01:34.814Z,2.89
2017-05-09T03:02:15.297Z,2.87
2017-05-09T03:02:55.765Z,2.8
2017-05-09T03:03:36.277Z,2.86
2017-05-09T03:04:16.753Z,2.87
2017-05-09T03:04:57.249Z,2.8
2017-05-09T03:05:37.723Z,2.87
2017-05-09T03:06:18.155Z,2.9
2017-05-09T03:06:58.644Z,2.86
2017-05-09T03:07:39.111Z,2.83
2017-05-09T03:08:19.624Z,2.74
2017-05-09T03:09:00.097Z,2.8
2017-05-09T03:09:40.579Z,2.79
2017-05-09T03:10:21.108Z,2.74
2017-05-09T03:11:01.571Z,2.74
2017-05-09T03:11:42.060Z,2.69
2017-05-09T03:12:22.517Z,2.69
2017-05-09T03:13:03.057Z,2.71
2017-05-09T03:13:43.531Z,2.67
2017-05-09T03:14:24.031Z,2.68
2017-05-09T03:15:04.480Z,2.74
2017-05-09T03:15:44.969Z,2.65
2017-05-09T03:16:25.502Z,2.64
2017-05-09T03:17:05.983Z,2.71
2017-05-09T03:17:46.502Z,2.65
2017-05-09T03:18:27.009Z,2.68
2017-05-09T03:19:07.644Z,2.72
2017-05-09T03:19:48.150Z,2.69
2017-05-09T03:20:28.586Z,2.71
2017-05-09T03:21:09.099Z,2.69
2017-05-09T03:21:49.571Z,2.72
2017-05-09T03:22:30.065Z,2.71
2017-05-09T03:23:10.547Z,2.67
2017-05-09T03:23:51.059Z,2.67
2017-05-09T03:24:31.598Z,2.69
2017-05-09T03:25:12.008Z,2.6
2017-05-09T03:25:54.484Z,2.64
2017-05-09T03:26:35.005Z,2.61
2017-05-09T03:27:15.439Z,2.65
2017-05-09T03:27:55.926Z,2.62
2017-05-09T03:28:37.004Z,2.64
2017-05-09T03:29:17.532Z,2.6
2017-05-09T03:29:57.997Z,2.6
2017-05-09T03:30:38.477Z,2.57
2017-05-09T03:31:18.981Z,2.51
2017-05-09T03:31:59.548Z,2.54
2017-05-09T03:32:39.983Z,2.51
2017-05-09T03:33:20.452Z,2.49
2017-05-09T03:34:00.975Z,2.47
2017-05-09T03:34:41.530Z,2.46
2017-05-09T03:35:21.951Z,2.49
2017-05-09T03:36:02.414Z,2.46
2017-05-09T03:36:42.895Z,2.5
2017-05-09T03:37:23.403Z,2.53
2017-05-09T03:38:03.927Z,2.38
2017-05-09T03:38:44.395Z,2.46
2017-05-09T03:39:24.882Z,2.46
2017-05-09T03:40:05.411Z,2.38
2017-05-09T03:40:45.879Z,2.53
2017-05-09T03:41:26.465Z,2.5
2017-05-09T03:42:06.935Z,2.47
2017-05-09T03:42:47.471Z,2.42
2017-05-09T03:43:27.985Z,2.44
2017-05-09T03:44:08.507Z,2.53
2017-05-09T03:44:49.023Z,2.39
2017-05-09T03:45:29.524Z,2.36
2017-05-09T03:46:10.001Z,2.47
2017-05-09T03:46:50.503Z,2.5
2017-05-09T03:47:30.979Z,2.49
2017-05-09T03:48:11.460Z,2.36
2017-05-09T03:48:51.940Z,2.35
2017-05-09T03:49:32.447Z,2.39
2017-05-09T03:50:12.990Z,2.36
2017-05-09T03:50:53.439Z,2.44
2017-05-09T03:51:33.966Z,2.39
2017-05-09T03:52:14.424Z,2.39
2017-05-09T03:52:54.889Z,2.43
2017-05-09T03:53:35.378Z,2.33
2017-05-09T03:54:15.885Z,2.43
2017-05-09T03:54:56.434Z,2.38
2017-05-09T03:55:36.957Z,2.39
2017-05-09T03:56:17.454Z,2.31
2017-05-09T03:56:57.938Z,2.35
2017-05-09T03:57:38.403Z,2.29
2017-05-09T03:58:18.884Z,2.38
2017-05-09T03:58:59.335Z,2.32
2017-05-09T03:59:39.833Z,2.33
2017-05-09T04:00:20.325Z,2.42
2017-05-09T04:01:00.864Z,2.39
2017-05-09T04:01:41.401Z,2.44
2017-05-09T04:02:21.942Z,2.38
2017-05-09T04:03:02.436Z,2.42
2017-05-09T04:03:42.896Z,2.47
2017-05-09T04:04:23.366Z,2.56
2017-05-09T04:05:03.832Z,2.53
2017-05-09T04:05:44.298Z,2.51
2017-05-09T04:06:24.785Z,2.53
2017-05-09T04:07:05.286Z,2.62
2017-05-09T04:07:45.757Z,2.6
2017-05-09T04:08:26.257Z,2.65
2017-05-09T04:09:06.747Z,2.69
2017-05-09T04:09:47.223Z,2.62
2017-05-09T04:10:27.752Z,2.62
2017-05-09T04:11:08.213Z,2.67
2017-05-09T04:11:48.755Z,2.65
2017-05-09T04:12:29.190Z,2.65
2017-05-09T04:13:09.701Z,2.67
2017-05-09T04:13:50.275Z,2.65
2017-05-09T04:14:30.766Z,2.67
2017-05-09T04:15:11.275Z,2.71
2017-05-09T04:15:51.828Z,2.68
2017-05-09T04:16:32.273Z,2.71
2017-05-09T04:17:12.900Z,2.74
2017-05-09T04:17:53.380Z,2.67
2017-05-09T04:18:33.930Z,2.67
2017-05-09T04:19:14.368Z,2.65
2017-05-09T04:19:54.850Z,2.75
2017-05-09T04:20:35.370Z,2.74
2017-05-09T04:21:15.824Z,2.77
2017-05-09T04:21:56.383Z,2.69
2017-05-09T04:22:36.873Z,2.8
2017-05-09T04:23:18.281Z,2.82
2017-05-09T04:23:58.770Z,2.82
2017-05-09T04:24:39.335Z,2.75
2017-05-09T04:25:19.795Z,2.82
2017-05-09T04:26:00.284Z,2.8
2017-05-09T04:26:40.812Z,2.86
2017-05-09T04:27:21.331Z,2.83
2017-05-09T04:28:01.814Z,2.86
2017-05-09T04:28:42.311Z,2.89
2017-05-09T04:29:22.866Z,2.89
2017-05-09T04:30:03.362Z,2.82
2017-05-09T04:30:45.481Z,2.89
2017-05-09T04:31:25.951Z,2.89
2017-05-09T04:32:06.480Z,2.9
2017-05-09T04:32:46.948Z,2.87
2017-05-09T04:33:27.415Z,2.93
2017-05-09T04:35:22.507Z,2.95
2017-05-09T04:36:12.115Z,3
2017-05-09T04:37:00.860Z,3.03
2017-05-09T04:37:49.074Z,3.01
2017-05-09T04:38:37.674Z,3.08
2017-05-09T04:39:26.154Z,3.1
2017-05-09T04:40:15.407Z,3.11
2017-05-09T04:41:04.392Z,3.08
2017-05-09T04:41:52.859Z,3.11
2017-05-09T04:43:58.536Z,3.03
2017-05-09T04:44:45.598Z,3.07
2017-05-09T04:45:34.252Z,3.16
2017-05-09T04:46:22.813Z,3.14
2017-05-09T04:47:11.250Z,3.14
2017-05-09T04:48:00.305Z,3.16
2017-05-09T04:48:46.457Z,3.22
2017-05-09T04:49:26.903Z,3.32
2017-05-09T04:50:07.415Z,3.28
2017-05-09T04:50:47.903Z,3.31
2017-05-09T04:51:28.386Z,3.31
2017-05-09T04:52:08.863Z,3.31
2017-05-09T04:52:49.331Z,3.31
2017-05-09T04:53:29.805Z,3.41
2017-05-09T04:54:10.315Z,3.36
2017-05-09T04:54:50.788Z,3.4
2017-05-09T04:55:31.292Z,3.45
2017-05-09T04:56:11.791Z,3.41
2017-05-09T04:56:52.282Z,3.45
2017-05-09T04:57:32.766Z,3.5
2017-05-09T04:58:13.238Z,3.48
2017-05-09T04:58:53.709Z,3.55
2017-05-09T04:59:34.190Z,3.51
2017-05-09T05:00:14.681Z,3.65
2017-05-09T05:00:55.175Z,3.7
2017-05-09T05:01:35.655Z,3.68
2017-05-09T05:02:16.197Z,3.76
2017-05-09T05:02:56.664Z,3.77
2017-05-09T05:03:37.164Z,3.83
2017-05-09T05:04:17.657Z,3.83
2017-05-09T05:04:58.124Z,3.86
2017-05-09T05:05:38.635Z,3.84
2017-05-09T05:06:19.150Z,3.84
2017-05-09T05:06:59.619Z,3.94
2017-05-09T05:07:40.232Z,3.99
2017-05-09T05:08:20.651Z,4.02
2017-05-09T05:09:01.297Z,3.99
2017-05-09T05:09:41.832Z,4.12
2017-05-09T05:10:22.351Z,4.14
2017-05-09T05:11:02.882Z,4.16
2017-05-09T05:11:43.638Z,4.19
2017-05-09T05:12:24.072Z,4.23
2017-05-09T05:13:04.592Z,4.3
2017-05-09T05:13:45.093Z,4.14
2017-05-09T05:14:25.618Z,4.19
2017-05-09T05:15:06.091Z,4.23
2017-05-09T05:15:46.931Z,4.37
2017-05-09T05:16:27.362Z,4.34
2017-05-09T05:17:07.844Z,4.35
2017-05-09T05:17:48.332Z,4.45
2017-05-09T05:18:28.818Z,4.5
2017-05-09T05:19:09.320Z,4.49
2017-05-09T05:19:49.756Z,4.5
2017-05-09T05:20:30.261Z,4.55
2017-05-09T05:21:10.758Z,4.68
2017-05-09T05:21:51.243Z,4.62
2017-05-09T05:22:31.727Z,4.7
2017-05-09T05:23:12.186Z,4.68
2017-05-09T05:23:52.691Z,4.89
2017-05-09T05:24:33.458Z,4.8
2017-05-09T05:25:14.000Z,4.9
2017-05-09T05:25:54.487Z,4.82
2017-05-09T05:26:34.937Z,4.82
2017-05-09T05:27:15.425Z,4.86
2017-05-09T05:27:55.958Z,4.86
2017-05-09T05:28:36.446Z,4.96
2017-05-09T05:29:16.889Z,4.92
2017-05-09T05:29:57.368Z,5
2017-05-09T05:30:37.885Z,4.97
2017-05-09T05:31:18.323Z,4.97
2017-05-09T05:31:58.827Z,4.99
2017-05-09T05:32:39.269Z,5
2017-05-09T05:33:19.741Z,4.96
2017-05-09T05:34:00.324Z,5.02
2017-05-09T05:34:41.339Z,5.07
2017-05-09T05:35:21.815Z,4.99
2017-05-09T05:36:02.296Z,5.04
2017-05-09T05:36:44.051Z,5.07
2017-05-09T05:37:24.574Z,5.12
2017-05-09T05:38:05.266Z,5.17
2017-05-09T05:38:45.748Z,5.14
2017-05-09T05:39:26.512Z,5.23
2017-05-09T05:40:06.949Z,5.23
2017-05-09T05:40:47.659Z,5.25
2017-05-09T05:41:28.153Z,5.25
2017-05-09T05:42:09.673Z,5.3
2017-05-09T05:42:50.815Z,5.29
2017-05-09T05:43:32.014Z,5.33
2017-05-09T05:44:12.492Z,5.25
2017-05-09T05:44:53.051Z,5.3
2017-05-09T05:45:33.569Z,5.32
2017-05-09T05:46:14.049Z,5.28
2017-05-09T05:46:54.547Z,5.3
2017-05-09T05:47:35.535Z,5.28
2017-05-09T05:48:16.015Z,5.28
2017-05-09T05:48:56.551Z,5.25
2017-05-09T05:49:37.055Z,5.3
2017-05-09T05:51:54.352Z,5.3
2017-05-09T05:52:42.704Z,5.29
2017-05-09T05:54:40.568Z,5.38
2017-05-09T05:55:28.696Z,5.35
2017-05-09T05:56:16.735Z,5.36
2017-05-09T05:56:59.984Z,5.32
2017-05-09T05:57:48.012Z,5.35
2017-05-09T05:58:29.708Z,5.32
2017-05-09T05:59:10.222Z,5.44
2017-05-09T05:59:50.661Z,5.38
2017-05-09T06:00:31.119Z,5.36
2017-05-09T06:01:11.641Z,5.41
2017-05-09T06:01:52.165Z,5.38
2017-05-09T06:02:32.577Z,5.38
2017-05-09T06:03:13.044Z,5.44
2017-05-09T06:03:53.522Z,5.39
2017-05-09T06:04:34.031Z,5.39
2017-05-09T06:05:14.582Z,5.43
2017-05-09T06:05:55.060Z,5.41
2017-05-09T06:06:35.533Z,5.38
2017-05-09T06:07:16.029Z,5.44
2017-05-09T06:07:56.534Z,5.47
2017-05-09T06:08:37.036Z,5.51
2017-05-09T06:09:17.488Z,5.53
2017-05-09T06:09:57.979Z,5.48
2017-05-09T06:10:38.477Z,5.56
2017-05-09T06:11:18.968Z,5.5
2017-05-09T06:11:59.491Z,5.59
2017-05-09T06:12:39.971Z,5.61
2017-05-09T06:13:20.471Z,5.62
2017-05-09T06:14:00.963Z,5.59
2017-05-09T06:14:41.426Z,5.68
2017-05-09T06:15:21.874Z,5.59
2017-05-09T06:16:02.374Z,5.59
2017-05-09T06:16:42.853Z,5.64
2017-05-09T06:17:23.380Z,5.68
2017-05-09T06:18:03.867Z,5.66
2017-05-09T06:18:44.371Z,5.69
2017-05-09T06:19:24.865Z,5.71
2017-05-09T06:20:05.356Z,5.79
2017-05-09T06:20:45.848Z,5.76
2017-05-09T06:21:26.296Z,5.72
2017-05-09T06:22:06.833Z,5.76
2017-05-09T06:22:47.270Z,5.69
2017-05-09T06:23:27.800Z,5.76
2017-05-09T06:24:08.228Z,5.8
2017-05-09T06:24:48.694Z,5.84
2017-05-09T06:25:29.173Z,5.83
2017-05-09T06:26:09.658Z,5.84
2017-05-09T06:26:50.168Z,5.93
2017-05-09T06:27:30.642Z,5.87
2017-05-09T06:28:11.167Z,5.94
2017-05-09T06:28:51.640Z,6.04
2017-05-09T06:29:32.147Z,5.99
2017-05-09T06:30:12.651Z,5.99
2017-05-09T06:30:53.126Z,6.08
2017-05-09T06:31:33.589Z,6.02
2017-05-09T06:32:14.074Z,6.12
2017-05-09T06:32:54.538Z,6.22
2017-05-09T06:33:35.069Z,6.14
2017-05-09T06:34:15.526Z,6.2
2017-05-09T06:34:55.980Z,6.27
2017-05-09T06:35:36.498Z,6.3
2017-05-09T06:36:17.049Z,6.35
2017-05-09T06:36:57.494Z,6.33
2017-05-09T06:37:37.993Z,6.45
2017-05-09T06:38:18.484Z,6.54
2017-05-09T06:38:59.024Z,6.63
2017-05-09T06:39:39.481Z,6.74
2017-05-09T06:40:19.991Z,6.72
2017-05-09T06:41:00.398Z,6.82
2017-05-09T06:41:40.868Z,6.87
2017-05-09T06:42:21.379Z,6.84
2017-05-09T06:43:01.915Z,6.96
2017-05-09T06:43:42.331Z,7.03
2017-05-09T06:44:22.818Z,6.99
2017-05-09T06:45:03.398Z,7.06
2017-05-09T06:45:43.855Z,7.11
2017-05-09T06:46:25.153Z,7.25
2017-05-09T06:47:07.241Z,7.28
2017-05-09T06:47:47.709Z,7.39
2017-05-09T06:48:28.203Z,7.45
2017-05-09T06:49:08.725Z,7.39
2017-05-09T06:49:49.202Z,7.51
2017-05-09T06:50:29.694Z,7.51
2017-05-09T06:51:10.237Z,7.54
2017-05-09T06:51:50.726Z,7.63
2017-05-09T06:52:31.243Z,7.73
2017-05-09T06:53:11.732Z,7.7
2017-05-09T06:53:52.275Z,7.7
2017-05-09T06:54:33.565Z,7.8
2017-05-09T06:55:14.341Z,7.8
2017-05-09T06:55:57.072Z,7.82
2017-05-09T06:56:39.797Z,7.93
2017-05-09T06:57:24.082Z,7.94
2017-05-09T06:58:07.582Z,8.03
2017-05-09T06:58:48.053Z,8
2017-05-09T06:59:30.895Z,8.12
2017-05-09T07:00:11.170Z,8.09
2017-05-09T07:00:52.507Z,8.2
2017-05-09T07:01:35.053Z,8.15
2017-05-09T07:02:15.838Z,8.27
2017-05-09T07:02:56.857Z,8.33
2017-05-09T07:03:43.110Z,8.31
2017-05-09T07:04:24.267Z,8.44
2017-05-09T07:05:04.999Z,8.45
2017-05-09T07:05:45.492Z,8.44
2017-05-09T07:06:26.046Z,8.48
2017-05-09T07:07:09.323Z,8.56
2017-05-09T07:07:49.813Z,8.52
2017-05-09T07:08:30.283Z,8.52
2017-05-09T07:09:11.528Z,8.66
2017-05-09T07:09:52.686Z,8.7
2017-05-09T07:10:34.561Z,8.67
2017-05-09T07:11:16.581Z,8.78
2017-05-09T07:11:58.481Z,8.78
2017-05-09T07:12:40.830Z,8.79
2017-05-09T07:13:22.206Z,8.88
2017-05-09T07:14:02.648Z,8.84
2017-05-09T07:14:44.586Z,8.91
2017-05-09T07:16:39.412Z,9.04
2017-05-09T07:17:25.456Z,9.06
2017-05-09T07:18:14.585Z,9.11
2017-05-09T07:19:04.770Z,9.04
2017-05-09T07:19:54.817Z,9.19
2017-05-09T07:20:44.864Z,9.21
2017-05-09T07:21:33.729Z,9.19
2017-05-09T07:22:25.808Z,9.21
2017-05-09T07:23:08.682Z,9.16
2017-05-09T07:23:50.761Z,9.11
2017-05-09T07:24:33.698Z,9.1
2017-05-09T07:25:17.059Z,9.16
2017-05-09T07:26:04.202Z,9.19
2017-05-09T07:26:45.647Z,9.16
2017-05-09T07:27:28.982Z,9.02
2017-05-09T07:28:13.355Z,9.06
2017-05-09T07:28:53.842Z,8.94
2017-05-09T07:29:37.347Z,9
2017-05-09T07:30:26.169Z,8.99
2017-05-09T07:31:08.283Z,9.02
2017-05-09T07:31:50.066Z,8.97
2017-05-09T07:34:12.058Z,8.92
2017-05-09T07:35:00.146Z,9.04
2017-05-09T07:35:46.949Z,8.89
2017-05-09T07:39:43.461Z,8.89
2017-05-09T07:40:30.298Z,8.81
2017-05-09T07:41:22.862Z,8.87
2017-05-09T07:42:13.012Z,8.84
2017-05-09T07:43:01.152Z,8.78
2017-05-09T07:43:50.859Z,8.84
2017-05-09T07:44:31.274Z,8.85
2017-05-09T07:45:11.776Z,8.82
2017-05-09T07:45:52.790Z,8.84
2017-05-09T07:46:33.326Z,8.78
2017-05-09T07:47:15.504Z,8.82
2017-05-09T07:48:02.611Z,8.7
2017-05-09T07:48:47.924Z,8.64
2017-05-09T07:49:30.547Z,8.67
2017-05-09T07:50:12.036Z,8.63
2017-05-09T07:50:53.333Z,8.61
2017-05-09T07:51:35.022Z,8.63
2017-05-09T07:52:18.621Z,8.58
2017-05-09T07:53:00.072Z,8.53
2017-05-09T07:53:40.593Z,8.63
2017-05-09T07:54:23.928Z,8.56
2017-05-09T07:57:38.279Z,8.51
2017-05-09T07:58:27.490Z,8.53
2017-05-09T07:59:16.415Z,8.38
2017-05-09T08:00:05.498Z,8.53
2017-05-09T08:00:53.761Z,8.52
2017-05-09T08:01:42.688Z,8.45
2017-05-09T08:02:31.370Z,8.41
2017-05-09T08:03:19.559Z,8.42
2017-05-09T08:04:08.484Z,8.44
2017-05-09T08:04:59.378Z,8.42
2017-05-09T08:05:48.266Z,8.49
2017-05-09T08:06:37.723Z,8.51
2017-05-09T08:08:59.094Z,8.55
2017-05-09T08:09:45.935Z,8.61
2017-05-09T08:10:35.934Z,8.56
2017-05-09T08:11:23.020Z,8.58
2017-05-09T08:12:11.809Z,8.6
2017-05-09T08:13:00.904Z,8.6
2017-05-09T08:13:49.359Z,8.63
2017-05-09T08:14:37.813Z,8.56
2017-05-09T08:15:26.522Z,8.69
2017-05-09T08:16:15.365Z,8.64
2017-05-09T08:17:04.204Z,8.7
2017-05-09T08:19:31.975Z,8.67
2017-05-09T08:20:21.012Z,8.71
2017-05-09T08:21:10.293Z,8.66
2017-05-09T08:23:30.295Z,8.78
2017-05-09T08:24:18.936Z,8.87
2017-05-09T08:25:08.349Z,8.81
2017-05-09T08:25:57.362Z,8.82
2017-05-09T08:26:45.472Z,8.94
2017-05-09T08:27:34.178Z,8.91
2017-05-09T08:28:23.148Z,8.87
2017-05-09T08:29:05.728Z,8.94
2017-05-09T08:29:49.846Z,8.88
2017-05-09T08:30:30.090Z,8.94
2017-05-09T08:31:11.163Z,8.99
2017-05-09T08:31:52.129Z,9.03
2017-05-09T08:32:32.551Z,9.02
2017-05-09T08:33:14.035Z,9.06
2017-05-09T08:33:54.530Z,9.08
2017-05-09T08:34:35.770Z,9.19
2017-05-09T08:35:16.266Z,9.19
2017-05-09T08:35:57.061Z,9.22
2017-05-09T08:36:37.672Z,9.25
2017-05-09T08:37:18.189Z,9.29
2017-05-09T08:37:58.644Z,9.31
2017-05-09T08:38:39.174Z,9.32
2017-05-09T08:39:19.708Z,9.31
2017-05-09T08:40:00.289Z,9.41
2017-05-09T08:40:40.826Z,9.44
2017-05-09T08:41:21.521Z,9.37
2017-05-09T08:42:02.041Z,9.47
2017-05-09T08:42:42.524Z,9.55
2017-05-09T08:43:23.106Z,9.56
2017-05-09T08:44:03.708Z,9.58
2017-05-09T08:44:44.144Z,9.5
2017-05-09T08:45:24.677Z,9.51
2017-05-09T08:46:05.230Z,9.48
2017-05-09T08:46:48.267Z,9.62
2017-05-09T08:47:31.244Z,9.68
2017-05-09T08:48:12.345Z,9.68
2017-05-09T08:49:01.284Z,9.68
2017-05-09T08:49:47.132Z,9.68
2017-05-09T08:50:41.092Z,9.61
2017-05-09T08:51:36.357Z,9.69
2017-05-09T08:52:20.832Z,9.73
2017-05-09T08:53:01.979Z,9.73
2017-05-09T08:53:49.879Z,9.65
2017-05-09T08:54:34.978Z,9.69
2017-05-09T08:55:29.611Z,9.68
2017-05-09T08:56:11.269Z,9.72
2017-05-09T08:56:54.705Z,9.62
2017-05-09T08:57:37.055Z,9.68
2017-05-09T08:58:25.281Z,9.73
2017-05-09T08:59:21.626Z,9.61
2017-05-09T09:00:02.945Z,9.69
2017-05-09T09:00:43.474Z,9.69
2017-05-09T09:01:23.929Z,9.8
2017-05-09T09:02:04.535Z,9.76
2017-05-09T09:02:45.032Z,9.74
2017-05-09T09:03:25.556Z,9.72
2017-05-09T09:04:07.561Z,9.73
2017-05-09T09:04:48.062Z,9.72
2017-05-09T09:05:28.614Z,9.76
2017-05-09T09:06:11.962Z,9.72
2017-05-09T09:06:54.969Z,9.76
2017-05-09T09:07:38.963Z,9.83
2017-05-09T09:08:22.183Z,9.86
2017-05-09T09:09:02.706Z,9.84
2017-05-09T09:09:43.999Z,9.94
2017-05-09T09:10:25.013Z,9.91
2017-05-09T09:11:05.493Z,9.87
2017-05-09T09:11:46.039Z,9.98
2017-05-09T09:12:28.671Z,9.91
2017-05-09T09:13:12.630Z,9.94
2017-05-09T09:13:53.889Z,9.98
2017-05-09T09:14:42.575Z,10.07
2017-05-09T09:15:23.194Z,10.12
2017-05-09T09:16:03.923Z,10.09
2017-05-09T09:16:45.427Z,10.25
2017-05-09T09:17:27.244Z,10.16
2017-05-09T09:18:11.517Z,10.16
2017-05-09T09:18:51.976Z,10.16
2017-05-09T09:19:32.535Z,10.1
2017-05-09T09:20:13.046Z,10.15
2017-05-09T09:20:54.181Z,10.23
2017-05-09T09:21:38.223Z,10.25
2017-05-09T09:22:22.189Z,10.17
2017-05-09T09:23:10.294Z,10.13
2017-05-09T09:23:51.764Z,10.15
2017-05-09T09:24:35.681Z,10.12
2017-05-09T09:25:17.981Z,10.19
2017-05-09T09:25:59.447Z,10.12
2017-05-09T09:26:40.789Z,10.13
2017-05-09T09:27:22.290Z,10.16
2017-05-09T09:28:05.330Z,10.2
2017-05-09T09:28:47.706Z,10.26
2017-05-09T09:29:29.149Z,10.25
2017-05-09T09:30:09.646Z,10.25
2017-05-09T09:30:50.164Z,10.28
2017-05-09T09:31:31.416Z,10.25
2017-05-09T09:32:12.030Z,10.17
2017-05-09T09:32:55.248Z,10.26
2017-05-09T09:33:36.355Z,10.2